sensor_id;sensor_type;location;lat;lon;timestamp;pressure;altitude;pressure_sealevel;temperature;humidity
47524;BME280;33253;42.144;25.884;2023-05-12T00:02:25;100976.66;;;10.28;94.90
47524;BME280;33253;42.144;25.884;2023-05-12T00:04:50;100961.06;;;10.07;95.17
47524;BME280;33253;42.144;25.884;2023-05-12T00:07:16;100974.91;;;10.09;95.65
47524;BME280;33253;42.144;25.884;2023-05-12T00:09:41;100889.78;;;9.53;96.09
47524;BME280;33253;42.144;25.884;2023-05-12T00:12:07;100976.78;;;9.94;96.75
47524;BME280;33253;42.144;25.884;2023-05-12T00:14:36;100978.19;;;9.87;97.24
47524;BME280;33253;42.144;25.884;2023-05-12T00:17:03;100974.78;;;9.70;97.89
47524;BME280;33253;42.144;25.884;2023-05-12T00:19:28;100977.91;;;9.46;98.85
47524;BME280;33253;42.144;25.884;2023-05-12T00:21:54;100976.50;;;9.35;99.30
47524;BME280;33253;42.144;25.884;2023-05-12T00:24:19;100967.25;;;9.22;100.00
47524;BME280;33253;42.144;25.884;2023-05-12T00:26:44;100969.09;;;9.41;99.36
47524;BME280;33253;42.144;25.884;2023-05-12T00:29:10;100968.41;;;9.45;98.92
47524;BME280;33253;42.144;25.884;2023-05-12T00:31:35;100962.38;;;9.45;98.58
47524;BME280;33253;42.144;25.884;2023-05-12T00:34:01;100898.56;;;9.04;98.45
47524;BME280;33253;42.144;25.884;2023-05-12T00:36:26;100972.59;;;9.43;98.65
47524;BME280;33253;42.144;25.884;2023-05-12T00:38:52;100959.75;;;9.27;99.17
47524;BME280;33253;42.144;25.884;2023-05-12T00:41:19;100964.91;;;9.27;99.45
47524;BME280;33253;42.144;25.884;2023-05-12T00:43:44;100976.19;;;9.29;99.81
47524;BME280;33253;42.144;25.884;2023-05-12T00:46:10;100964.22;;;9.13;99.86
47524;BME280;33253;42.144;25.884;2023-05-12T00:48:35;100973.97;;;9.02;100.00
47524;BME280;33253;42.144;25.884;2023-05-12T00:51:02;100967.22;;;9.04;100.00
47524;BME280;33253;42.144;25.884;2023-05-12T00:53:30;100939.06;;;8.90;100.00
47524;BME280;33253;42.144;25.884;2023-05-12T00:55:55;100969.69;;;9.19;99.52
47524;BME280;33253;42.144;25.884;2023-05-12T00:58:22;100973.69;;;9.30;99.58
47524;BME280;33253;42.144;25.884;2023-05-12T01:00:47;100945.28;;;9.29;98.73
47524;BME280;33253;42.144;25.884;2023-05-12T01:03:13;100983.97;;;9.65;97.37
47524;BME280;33253;42.144;25.884;2023-05-12T01:05:41;100972.34;;;9.73;97.00
47524;BME280;33253;42.144;25.884;2023-05-12T01:08:12;100983.03;;;9.81;96.50
47524;BME280;33253;42.144;25.884;2023-05-12T01:10:42;100987.66;;;9.88;96.09
47524;BME280;33253;42.144;25.884;2023-05-12T01:13:08;100972.63;;;9.97;96.04
47524;BME280;33253;42.144;25.884;2023-05-12T01:15:34;100888.00;;;9.52;95.04
47524;BME280;33253;42.144;25.884;2023-05-12T01:18:02;100969.72;;;9.90;95.27
47524;BME280;33253;42.144;25.884;2023-05-12T01:20:30;100975.88;;;9.75;96.15
47524;BME280;33253;42.144;25.884;2023-05-12T01:22:57;100958.97;;;9.46;96.70
47524;BME280;33253;42.144;25.884;2023-05-12T01:25:23;100948.59;;;9.26;97.18
47524;BME280;33253;42.144;25.884;2023-05-12T01:27:49;100943.75;;;9.16;97.91
47524;BME280;33253;42.144;25.884;2023-05-12T01:30:16;100968.16;;;9.22;98.68
47524;BME280;33253;42.144;25.884;2023-05-12T01:32:42;100967.78;;;9.15;98.67
47524;BME280;33253;42.144;25.884;2023-05-12T01:35:08;100866.19;;;8.42;99.61
47524;BME280;33253;42.144;25.884;2023-05-12T01:37:33;100952.00;;;8.92;99.90
47524;BME280;33253;42.144;25.884;2023-05-12T01:39:59;100970.06;;;8.76;100.00
47524;BME280;33253;42.144;25.884;2023-05-12T01:42:24;100973.69;;;8.63;100.00
47524;BME280;33253;42.144;25.884;2023-05-12T01:44:50;100970.38;;;8.49;100.00
47524;BME280;33253;42.144;25.884;2023-05-12T01:47:15;100966.28;;;8.52;100.00
47524;BME280;33253;42.144;25.884;2023-05-12T01:49:41;100949.81;;;8.34;100.00
47524;BME280;33253;42.144;25.884;2023-05-12T01:52:06;100969.88;;;8.56;100.00
47524;BME280;33253;42.144;25.884;2023-05-12T01:54:32;100960.22;;;8.68;100.00
47524;BME280;33253;42.144;25.884;2023-05-12T01:56:57;100914.91;;;8.54;100.00
47524;BME280;33253;42.144;25.884;2023-05-12T01:59:22;100896.81;;;8.52;100.00
47524;BME280;33253;42.144;25.884;2023-05-12T02:01:48;100880.31;;;8.49;100.00
47524;BME280;33253;42.144;25.884;2023-05-12T02:04:13;100955.31;;;8.89;100.00
47524;BME280;33253;42.144;25.884;2023-05-12T02:06:39;100956.69;;;8.83;100.00
47524;BME280;33253;42.144;25.884;2023-05-12T02:09:04;100950.19;;;8.73;100.00
47524;BME280;33253;42.144;25.884;2023-05-12T02:11:30;100965.16;;;8.64;100.00
47524;BME280;33253;42.144;25.884;2023-05-12T02:13:55;100878.72;;;8.03;100.00
47524;BME280;33253;42.144;25.884;2023-05-12T02:16:21;100972.31;;;8.53;100.00
47524;BME280;33253;42.144;25.884;2023-05-12T02:18:47;100942.88;;;8.48;100.00
47524;BME280;33253;42.144;25.884;2023-05-12T02:21:12;100972.47;;;8.41;100.00
47524;BME280;33253;42.144;25.884;2023-05-12T02:23:38;100973.75;;;8.16;100.00
47524;BME280;33253;42.144;25.884;2023-05-12T02:26:03;100906.06;;;7.69;100.00
47524;BME280;33253;42.144;25.884;2023-05-12T02:28:29;100956.53;;;8.15;100.00
47524;BME280;33253;42.144;25.884;2023-05-12T02:30:54;100977.88;;;8.46;100.00
47524;BME280;33253;42.144;25.884;2023-05-12T02:33:20;100907.81;;;8.02;100.00
47524;BME280;33253;42.144;25.884;2023-05-12T02:35:47;100957.38;;;8.31;100.00
47524;BME280;33253;42.144;25.884;2023-05-12T02:38:12;100947.88;;;8.30;100.00
47524;BME280;33253;42.144;25.884;2023-05-12T02:40:38;100963.47;;;8.48;100.00
47524;BME280;33253;42.144;25.884;2023-05-12T02:43:04;100960.09;;;8.49;100.00
47524;BME280;33253;42.144;25.884;2023-05-12T02:45:29;100879.50;;;7.85;100.00
47524;BME280;33253;42.144;25.884;2023-05-12T02:47:55;100962.59;;;8.32;100.00
47524;BME280;33253;42.144;25.884;2023-05-12T02:50:21;100971.25;;;8.49;100.00
47524;BME280;33253;42.144;25.884;2023-05-12T02:52:47;100967.53;;;8.44;100.00
47524;BME280;33253;42.144;25.884;2023-05-12T02:55:12;100928.28;;;8.32;100.00
47524;BME280;33253;42.144;25.884;2023-05-12T02:57:38;100959.09;;;8.47;100.00
47524;BME280;33253;42.144;25.884;2023-05-12T03:00:04;100907.38;;;8.25;100.00
47524;BME280;33253;42.144;25.884;2023-05-12T03:02:31;100971.09;;;8.63;100.00
47524;BME280;33253;42.144;25.884;2023-05-12T03:04:57;100976.59;;;8.69;100.00
47524;BME280;33253;42.144;25.884;2023-05-12T03:07:22;100979.56;;;8.60;100.00
47524;BME280;33253;42.144;25.884;2023-05-12T03:09:48;100986.00;;;8.37;100.00
47524;BME280;33253;42.144;25.884;2023-05-12T03:12:13;100980.69;;;8.34;100.00
47524;BME280;33253;42.144;25.884;2023-05-12T03:14:39;100894.03;;;7.85;100.00
47524;BME280;33253;42.144;25.884;2023-05-12T03:17:04;100962.69;;;8.34;100.00
47524;BME280;33253;42.144;25.884;2023-05-12T03:19:30;100985.44;;;8.57;100.00
47524;BME280;33253;42.144;25.884;2023-05-12T03:21:56;100876.16;;;8.03;99.91
47524;BME280;33253;42.144;25.884;2023-05-12T03:24:25;100926.34;;;8.44;99.48
47524;BME280;33253;42.144;25.884;2023-05-12T03:26:50;100972.81;;;8.79;98.55
47524;BME280;33253;42.144;25.884;2023-05-12T03:29:15;100990.16;;;8.99;98.24
47524;BME280;33253;42.144;25.884;2023-05-12T03:31:41;100986.06;;;9.03;98.08
47524;BME280;33253;42.144;25.884;2023-05-12T03:34:06;100996.75;;;9.11;98.31
47524;BME280;33253;42.144;25.884;2023-05-12T03:36:32;100992.81;;;9.17;98.02
47524;BME280;33253;42.144;25.884;2023-05-12T03:38:57;100930.47;;;8.90;97.36
47524;BME280;33253;42.144;25.884;2023-05-12T03:41:22;100976.38;;;9.15;96.56
47524;BME280;33253;42.144;25.884;2023-05-12T03:43:48;100982.81;;;9.07;96.76
47524;BME280;33253;42.144;25.884;2023-05-12T03:46:13;100999.06;;;9.22;96.51
47524;BME280;33253;42.144;25.884;2023-05-12T03:48:39;101012.81;;;9.23;96.54
47524;BME280;33253;42.144;25.884;2023-05-12T03:51:04;100986.63;;;8.97;98.21
47524;BME280;33253;42.144;25.884;2023-05-12T03:53:30;100951.47;;;8.81;97.67
47524;BME280;33253;42.144;25.884;2023-05-12T03:55:55;101030.72;;;9.20;98.02
47524;BME280;33253;42.144;25.884;2023-05-12T03:58:22;101019.63;;;9.21;97.09
47524;BME280;33253;42.144;25.884;2023-05-12T04:00:48;101023.72;;;9.17;96.48
47524;BME280;33253;42.144;25.884;2023-05-12T04:03:14;101021.78;;;9.13;96.76
47524;BME280;33253;42.144;25.884;2023-05-12T04:05:40;101013.00;;;9.10;97.13
47524;BME280;33253;42.144;25.884;2023-05-12T04:08:07;101005.06;;;9.05;96.44
47524;BME280;33253;42.144;25.884;2023-05-12T04:10:39;101010.22;;;9.05;96.30
47524;BME280;33253;42.144;25.884;2023-05-12T04:13:05;101028.63;;;9.13;96.66
47524;BME280;33253;42.144;25.884;2023-05-12T04:15:35;101022.69;;;8.97;97.23
47524;BME280;33253;42.144;25.884;2023-05-12T04:18:01;101027.59;;;8.93;97.70
47524;BME280;33253;42.144;25.884;2023-05-12T04:20:27;101031.50;;;8.53;99.74
47524;BME280;33253;42.144;25.884;2023-05-12T04:22:52;100971.78;;;8.12;100.00
47524;BME280;33253;42.144;25.884;2023-05-12T04:25:18;101038.81;;;8.62;100.00
47524;BME280;33253;42.144;25.884;2023-05-12T04:27:43;101034.34;;;8.74;100.00
47524;BME280;33253;42.144;25.884;2023-05-12T04:30:09;101033.88;;;8.81;100.00
47524;BME280;33253;42.144;25.884;2023-05-12T04:32:34;101025.41;;;8.84;99.39
47524;BME280;33253;42.144;25.884;2023-05-12T04:35:00;101033.06;;;8.99;100.00
47524;BME280;33253;42.144;25.884;2023-05-12T04:37:25;100991.16;;;8.85;99.57
47524;BME280;33253;42.144;25.884;2023-05-12T04:39:51;101012.53;;;9.00;98.83
47524;BME280;33253;42.144;25.884;2023-05-12T04:42:16;101000.53;;;9.01;98.48
47524;BME280;33253;42.144;25.884;2023-05-12T04:44:42;101028.22;;;9.21;98.61
47524;BME280;33253;42.144;25.884;2023-05-12T04:47:10;101013.56;;;9.20;98.68
47524;BME280;33253;42.144;25.884;2023-05-12T04:49:35;100991.47;;;9.26;98.10
47524;BME280;33253;42.144;25.884;2023-05-12T04:52:01;101007.13;;;9.29;99.34
47524;BME280;33253;42.144;25.884;2023-05-12T04:54:26;101025.47;;;9.35;100.00
47524;BME280;33253;42.144;25.884;2023-05-12T04:56:51;101028.97;;;9.37;100.00
47524;BME280;33253;42.144;25.884;2023-05-12T04:59:17;100948.09;;;8.99;100.00
47524;BME280;33253;42.144;25.884;2023-05-12T05:01:42;101038.47;;;9.54;99.68
47524;BME280;33253;42.144;25.884;2023-05-12T05:04:08;101015.03;;;9.50;98.55
47524;BME280;33253;42.144;25.884;2023-05-12T05:06:33;101002.72;;;9.44;99.18
47524;BME280;33253;42.144;25.884;2023-05-12T05:08:59;101027.06;;;9.67;100.00
47524;BME280;33253;42.144;25.884;2023-05-12T05:11:24;100996.94;;;9.48;100.00
47524;BME280;33253;42.144;25.884;2023-05-12T05:13:50;101021.19;;;9.70;100.00
47524;BME280;33253;42.144;25.884;2023-05-12T05:16:16;101031.59;;;9.90;100.00
47524;BME280;33253;42.144;25.884;2023-05-12T05:18:42;101034.81;;;9.85;100.00
47524;BME280;33253;42.144;25.884;2023-05-12T05:21:11;101031.31;;;9.83;100.00
47524;BME280;33253;42.144;25.884;2023-05-12T05:23:38;101037.41;;;9.85;100.00
47524;BME280;33253;42.144;25.884;2023-05-12T05:26:03;100962.16;;;9.58;100.00
47524;BME280;33253;42.144;25.884;2023-05-12T05:28:29;101005.94;;;9.93;100.00
47524;BME280;33253;42.144;25.884;2023-05-12T05:30:55;100892.56;;;9.40;99.97
47524;BME280;33253;42.144;25.884;2023-05-12T05:33:20;101028.34;;;10.30;100.00
47524;BME280;33253;42.144;25.884;2023-05-12T05:35:46;101025.84;;;10.49;99.98
47524;BME280;33253;42.144;25.884;2023-05-12T05:38:12;101026.13;;;10.56;98.61
47524;BME280;33253;42.144;25.884;2023-05-12T05:40:37;101017.91;;;10.64;99.41
47524;BME280;33253;42.144;25.884;2023-05-12T05:43:03;101021.94;;;10.77;98.54
47524;BME280;33253;42.144;25.884;2023-05-12T05:45:28;101013.16;;;10.93;97.50
47524;BME280;33253;42.144;25.884;2023-05-12T05:47:54;101017.38;;;11.11;98.10
47524;BME280;33253;42.144;25.884;2023-05-12T05:50:19;100998.81;;;11.00;92.83
47524;BME280;33253;42.144;25.884;2023-05-12T05:52:45;100956.94;;;10.88;92.09
47524;BME280;33253;42.144;25.884;2023-05-12T05:55:10;101012.94;;;11.28;93.06
47524;BME280;33253;42.144;25.884;2023-05-12T05:57:36;100931.31;;;10.92;93.27
47524;BME280;33253;42.144;25.884;2023-05-12T06:00:02;100945.28;;;11.17;93.46
47524;BME280;33253;42.144;25.884;2023-05-12T06:02:29;100957.41;;;11.39;89.19
47524;BME280;33253;42.144;25.884;2023-05-12T06:04:56;101005.78;;;11.63;89.07
47524;BME280;33253;42.144;25.884;2023-05-12T06:07:21;101009.28;;;11.65;89.38
47524;BME280;33253;42.144;25.884;2023-05-12T06:09:47;101012.38;;;11.77;88.92
47524;BME280;33253;42.144;25.884;2023-05-12T06:12:12;100981.53;;;11.82;90.55
47524;BME280;33253;42.144;25.884;2023-05-12T06:14:37;100983.50;;;11.88;88.03
47524;BME280;33253;42.144;25.884;2023-05-12T06:17:03;101005.78;;;12.05;88.87
47524;BME280;33253;42.144;25.884;2023-05-12T06:19:28;101015.38;;;12.08;88.21
47524;BME280;33253;42.144;25.884;2023-05-12T06:21:54;101019.53;;;12.27;88.25
47524;BME280;33253;42.144;25.884;2023-05-12T06:24:20;100994.94;;;12.16;89.07
47524;BME280;33253;42.144;25.884;2023-05-12T06:26:45;101009.09;;;12.24;89.92
47524;BME280;33253;42.144;25.884;2023-05-12T06:29:10;101018.38;;;12.41;92.92
47524;BME280;33253;42.144;25.884;2023-05-12T06:31:36;100950.78;;;12.11;89.41
47524;BME280;33253;42.144;25.884;2023-05-12T06:34:01;100942.19;;;12.12;89.41
47524;BME280;33253;42.144;25.884;2023-05-12T06:36:27;100936.59;;;12.24;88.70
47524;BME280;33253;42.144;25.884;2023-05-12T06:38:54;100908.94;;;12.23;87.43
47524;BME280;33253;42.144;25.884;2023-05-12T06:41:20;101010.72;;;12.91;86.10
47524;BME280;33253;42.144;25.884;2023-05-12T06:43:46;101010.94;;;12.98;87.91
47524;BME280;33253;42.144;25.884;2023-05-12T06:46:12;101007.13;;;12.88;85.44
47524;BME280;33253;42.144;25.884;2023-05-12T06:48:38;101018.00;;;13.02;84.58
47524;BME280;33253;42.144;25.884;2023-05-12T06:51:04;101010.69;;;13.16;86.51
47524;BME280;33253;42.144;25.884;2023-05-12T06:53:29;101013.28;;;13.16;83.49
47524;BME280;33253;42.144;25.884;2023-05-12T06:55:54;100994.00;;;13.07;84.09
47524;BME280;33253;42.144;25.884;2023-05-12T06:58:20;101012.69;;;13.23;86.27
47524;BME280;33253;42.144;25.884;2023-05-12T07:00:46;101016.19;;;13.23;83.21
47524;BME280;33253;42.144;25.884;2023-05-12T07:03:12;101012.63;;;13.21;83.01
47524;BME280;33253;42.144;25.884;2023-05-12T07:05:37;101014.72;;;13.32;83.14
47524;BME280;33253;42.144;25.884;2023-05-12T07:08:04;101016.31;;;13.28;84.19
47524;BME280;33253;42.144;25.884;2023-05-12T07:10:30;100995.88;;;13.11;82.17
47524;BME280;33253;42.144;25.884;2023-05-12T07:12:57;101024.09;;;13.28;83.18
47524;BME280;33253;42.144;25.884;2023-05-12T07:15:22;101017.34;;;13.33;82.51
47524;BME280;33253;42.144;25.884;2023-05-12T07:17:47;101009.97;;;13.44;84.42
47524;BME280;33253;42.144;25.884;2023-05-12T07:20:13;101022.50;;;13.56;82.19
47524;BME280;33253;42.144;25.884;2023-05-12T07:22:38;101012.31;;;13.62;80.76
47524;BME280;33253;42.144;25.884;2023-05-12T07:25:24;101015.94;;;13.67;80.35
47524;BME280;33253;42.144;25.884;2023-05-12T07:27:49;101018.22;;;13.84;79.96
47524;BME280;33253;42.144;25.884;2023-05-12T07:30:14;101007.88;;;13.85;78.45
47524;BME280;33253;42.144;25.884;2023-05-12T07:32:40;101014.25;;;13.95;79.01
47524;BME280;33253;42.144;25.884;2023-05-12T07:35:07;101016.94;;;13.98;80.34
47524;BME280;33253;42.144;25.884;2023-05-12T07:37:34;101028.03;;;13.94;80.54
47524;BME280;33253;42.144;25.884;2023-05-12T07:40:00;100943.50;;;13.46;80.57
47524;BME280;33253;42.144;25.884;2023-05-12T07:42:25;100973.44;;;13.64;80.18
47524;BME280;33253;42.144;25.884;2023-05-12T07:44:51;101026.53;;;14.01;79.24
47524;BME280;33253;42.144;25.884;2023-05-12T07:47:16;101021.47;;;14.05;78.89
47524;BME280;33253;42.144;25.884;2023-05-12T07:49:42;101016.41;;;14.08;77.20
47524;BME280;33253;42.144;25.884;2023-05-12T07:52:08;101016.47;;;14.12;76.37
47524;BME280;33253;42.144;25.884;2023-05-12T07:54:34;101020.25;;;14.21;77.53
47524;BME280;33253;42.144;25.884;2023-05-12T07:56:59;101016.97;;;14.27;76.47
47524;BME280;33253;42.144;25.884;2023-05-12T07:59:25;100999.56;;;14.24;76.57
47524;BME280;33253;42.144;25.884;2023-05-12T08:01:50;101012.97;;;14.38;74.98
47524;BME280;33253;42.144;25.884;2023-05-12T08:04:16;101010.53;;;14.43;75.33
47524;BME280;33253;42.144;25.884;2023-05-12T08:06:41;101001.31;;;14.54;75.00
47524;BME280;33253;42.144;25.884;2023-05-12T08:09:06;101021.72;;;14.69;74.78
47524;BME280;33253;42.144;25.884;2023-05-12T08:11:32;101022.78;;;14.78;74.61
47524;BME280;33253;42.144;25.884;2023-05-12T08:13:57;100968.97;;;14.43;75.39
47524;BME280;33253;42.144;25.884;2023-05-12T08:16:23;101023.56;;;14.74;76.01
47524;BME280;33253;42.144;25.884;2023-05-12T08:18:48;101027.91;;;14.75;76.19
47524;BME280;33253;42.144;25.884;2023-05-12T08:21:13;101023.28;;;14.64;76.19
47524;BME280;33253;42.144;25.884;2023-05-12T08:23:39;100960.50;;;14.21;74.51
47524;BME280;33253;42.144;25.884;2023-05-12T08:26:05;101020.03;;;14.71;74.30
47524;BME280;33253;42.144;25.884;2023-05-12T08:28:30;101011.38;;;14.72;75.47
47524;BME280;33253;42.144;25.884;2023-05-12T08:30:57;101006.19;;;14.72;74.68
47524;BME280;33253;42.144;25.884;2023-05-12T08:33:23;100997.38;;;14.67;76.06
47524;BME280;33253;42.144;25.884;2023-05-12T08:35:48;101021.28;;;14.84;77.30
47524;BME280;33253;42.144;25.884;2023-05-12T08:38:15;100979.47;;;14.77;75.54
47524;BME280;33253;42.144;25.884;2023-05-12T08:41:10;100958.22;;;14.92;75.34
47524;BME280;33253;42.144;25.884;2023-05-12T08:43:37;101025.34;;;15.40;72.24
47524;BME280;33253;42.144;25.884;2023-05-12T08:46:06;101014.09;;;15.41;68.12
47524;BME280;33253;42.144;25.884;2023-05-12T08:48:33;101023.94;;;15.51;68.77
47524;BME280;33253;42.144;25.884;2023-05-12T08:51:01;101025.78;;;15.57;67.86
47524;BME280;33253;42.144;25.884;2023-05-12T08:53:28;101018.59;;;15.47;71.38
47524;BME280;33253;42.144;25.884;2023-05-12T08:55:55;101014.53;;;15.58;71.61
47524;BME280;33253;42.144;25.884;2023-05-12T08:58:20;101027.53;;;15.90;69.94
47524;BME280;33253;42.144;25.884;2023-05-12T09:00:46;100931.59;;;15.35;68.16
47524;BME280;33253;42.144;25.884;2023-05-12T09:03:12;101008.22;;;15.82;69.04
47524;BME280;33253;42.144;25.884;2023-05-12T09:05:39;101011.13;;;15.94;69.64
47524;BME280;33253;42.144;25.884;2023-05-12T09:08:09;101000.19;;;16.11;70.28
47524;BME280;33253;42.144;25.884;2023-05-12T09:10:38;100959.38;;;16.10;71.13
47524;BME280;33253;42.144;25.884;2023-05-12T09:16:11;100964.56;;;16.08;67.00
47524;BME280;33253;42.144;25.884;2023-05-12T09:18:47;101015.25;;;16.23;67.35
47524;BME280;33253;42.144;25.884;2023-05-12T09:21:14;101010.75;;;16.17;66.11
47524;BME280;33253;42.144;25.884;2023-05-12T09:24:05;100996.91;;;16.20;68.74
47524;BME280;33253;42.144;25.884;2023-05-12T09:26:52;101003.94;;;16.22;65.03
47524;BME280;33253;42.144;25.884;2023-05-12T09:29:18;101004.72;;;16.18;65.94
47524;BME280;33253;42.144;25.884;2023-05-12T09:31:54;100994.41;;;16.23;63.89
47524;BME280;33253;42.144;25.884;2023-05-12T09:34:32;100992.78;;;16.29;62.95
47524;BME280;33253;42.144;25.884;2023-05-12T09:37:02;100995.81;;;16.48;64.34
47524;BME280;33253;42.144;25.884;2023-05-12T09:39:28;100982.19;;;16.61;64.66
47524;BME280;33253;42.144;25.884;2023-05-12T09:41:54;101000.00;;;16.84;61.50
47524;BME280;33253;42.144;25.884;2023-05-12T09:44:20;100991.16;;;16.76;61.41
47524;BME280;33253;42.144;25.884;2023-05-12T09:46:46;100962.41;;;16.73;60.71
47524;BME280;33253;42.144;25.884;2023-05-12T09:49:17;100986.53;;;17.05;62.03
47524;BME280;33253;42.144;25.884;2023-05-12T09:51:43;100969.59;;;16.85;61.05
47524;BME280;33253;42.144;25.884;2023-05-12T09:54:09;100980.34;;;16.98;61.62
47524;BME280;33253;42.144;25.884;2023-05-12T09:56:36;100966.94;;;16.81;59.55
47524;BME280;33253;42.144;25.884;2023-05-12T09:59:04;100985.06;;;16.75;63.07
47524;BME280;33253;42.144;25.884;2023-05-12T10:01:30;100984.19;;;16.75;59.15
47524;BME280;33253;42.144;25.884;2023-05-12T10:03:57;100958.25;;;16.81;61.58
47524;BME280;33253;42.144;25.884;2023-05-12T10:06:26;100989.41;;;16.75;59.38
47524;BME280;33253;42.144;25.884;2023-05-12T10:11:18;100994.72;;;17.25;59.35
47524;BME280;33253;42.144;25.884;2023-05-12T10:13:46;100986.31;;;17.42;58.26
47524;BME280;33253;42.144;25.884;2023-05-12T10:16:12;100966.47;;;17.52;55.38
47524;BME280;33253;42.144;25.884;2023-05-12T10:18:41;100959.91;;;17.77;54.80
47524;BME280;33253;42.144;25.884;2023-05-12T10:21:12;100867.88;;;17.35;51.83
47524;BME280;33253;42.144;25.884;2023-05-12T10:23:39;100910.91;;;17.60;53.08
47524;BME280;33253;42.144;25.884;2023-05-12T10:26:09;100840.22;;;17.48;52.87
47524;BME280;33253;42.144;25.884;2023-05-12T10:28:36;100943.06;;;18.16;50.42
47524;BME280;33253;42.144;25.884;2023-05-12T10:31:03;100964.63;;;18.01;50.71
47524;BME280;33253;42.144;25.884;2023-05-12T10:33:32;100937.59;;;17.99;50.45
47524;BME280;33253;42.144;25.884;2023-05-12T10:35:58;100946.44;;;18.09;50.77
47524;BME280;33253;42.144;25.884;2023-05-12T10:38:24;100810.72;;;17.52;49.60
47524;BME280;33253;42.144;25.884;2023-05-12T10:40:57;100971.22;;;18.39;50.76
47524;BME280;33253;42.144;25.884;2023-05-12T10:43:28;100940.44;;;18.16;52.23
47524;BME280;33253;42.144;25.884;2023-05-12T10:46:06;100952.84;;;18.31;50.06
47524;BME280;33253;42.144;25.884;2023-05-12T10:48:32;100962.63;;;18.48;51.00
47524;BME280;33253;42.144;25.884;2023-05-12T10:51:06;100945.25;;;18.53;49.62
47524;BME280;33253;42.144;25.884;2023-05-12T10:53:32;100905.00;;;18.37;50.20
47524;BME280;33253;42.144;25.884;2023-05-12T10:56:02;100942.69;;;18.56;48.40
47524;BME280;33253;42.144;25.884;2023-05-12T10:58:29;100950.59;;;18.61;50.44
47524;BME280;33253;42.144;25.884;2023-05-12T11:01:03;100928.13;;;18.81;49.32
47524;BME280;33253;42.144;25.884;2023-05-12T11:03:29;100958.91;;;19.01;48.76
47524;BME280;33253;42.144;25.884;2023-05-12T11:06:04;100947.72;;;19.17;47.12
47524;BME280;33253;42.144;25.884;2023-05-12T11:08:31;100945.16;;;19.25;46.92
47524;BME280;33253;42.144;25.884;2023-05-12T11:10:59;100927.63;;;19.13;45.33
47524;BME280;33253;42.144;25.884;2023-05-12T11:13:25;100929.59;;;19.44;42.63
47524;BME280;33253;42.144;25.884;2023-05-12T11:15:51;100948.97;;;19.63;44.70
47524;BME280;33253;42.144;25.884;2023-05-12T11:18:21;100921.84;;;19.58;45.12
47524;BME280;33253;42.144;25.884;2023-05-12T11:20:48;100896.41;;;19.41;45.89
47524;BME280;33253;42.144;25.884;2023-05-12T11:23:26;100919.16;;;19.45;45.21
47524;BME280;33253;42.144;25.884;2023-05-12T11:25:54;100940.22;;;19.61;47.26
47524;BME280;33253;42.144;25.884;2023-05-12T11:28:20;100928.66;;;19.34;47.83
47524;BME280;33253;42.144;25.884;2023-05-12T11:30:52;100943.53;;;19.38;45.53
47524;BME280;33253;42.144;25.884;2023-05-12T11:33:19;100847.91;;;18.79;45.19
47524;BME280;33253;42.144;25.884;2023-05-12T11:35:46;100921.69;;;19.33;44.28
47524;BME280;33253;42.144;25.884;2023-05-12T11:38:17;100926.13;;;19.42;43.99
47524;BME280;33253;42.144;25.884;2023-05-12T11:40:42;100914.88;;;19.56;45.17
47524;BME280;33253;42.144;25.884;2023-05-12T11:43:09;100869.31;;;19.34;44.24
47524;BME280;33253;42.144;25.884;2023-05-12T11:45:39;100819.47;;;19.16;45.09
47524;BME280;33253;42.144;25.884;2023-05-12T11:48:09;100911.59;;;19.88;44.55
47524;BME280;33253;42.144;25.884;2023-05-12T11:50:37;100908.22;;;20.08;42.61
47524;BME280;33253;42.144;25.884;2023-05-12T11:53:04;100922.22;;;20.12;40.16
47524;BME280;33253;42.144;25.884;2023-05-12T11:55:29;100911.81;;;20.29;41.42
47524;BME280;33253;42.144;25.884;2023-05-12T11:57:57;100911.81;;;20.38;42.27
47524;BME280;33253;42.144;25.884;2023-05-12T12:00:31;100909.22;;;20.44;41.28
47524;BME280;33253;42.144;25.884;2023-05-12T12:03:11;100886.47;;;20.37;39.58
47524;BME280;33253;42.144;25.884;2023-05-12T12:05:39;100902.25;;;20.54;39.92
47524;BME280;33253;42.144;25.884;2023-05-12T12:08:12;100906.63;;;20.60;39.19
47524;BME280;33253;42.144;25.884;2023-05-12T12:10:42;100904.97;;;20.76;40.56
47524;BME280;33253;42.144;25.884;2023-05-12T12:13:08;100887.47;;;20.76;38.58
47524;BME280;33253;42.144;25.884;2023-05-12T12:15:33;100820.94;;;20.43;36.51
47524;BME280;33253;42.144;25.884;2023-05-12T12:17:59;100855.09;;;20.65;38.83
47524;BME280;33253;42.144;25.884;2023-05-12T12:20:24;100875.19;;;20.67;40.34
47524;BME280;33253;42.144;25.884;2023-05-12T12:22:51;100904.97;;;20.74;40.43
47524;BME280;33253;42.144;25.884;2023-05-12T12:25:18;100902.34;;;20.82;40.26
47524;BME280;33253;42.144;25.884;2023-05-12T12:27:44;100924.22;;;20.79;40.83
47524;BME280;33253;42.144;25.884;2023-05-12T12:30:10;100834.78;;;20.02;39.23
47524;BME280;33253;42.144;25.884;2023-05-12T12:32:35;100893.50;;;20.41;40.05
47524;BME280;33253;42.144;25.884;2023-05-12T12:35:02;100837.47;;;20.24;42.26
47524;BME280;33253;42.144;25.884;2023-05-12T12:37:30;100869.91;;;20.50;40.85
47524;BME280;33253;42.144;25.884;2023-05-12T12:39:56;100890.97;;;20.75;38.15
47524;BME280;33253;42.144;25.884;2023-05-12T12:42:21;100904.13;;;20.80;38.68
47524;BME280;33253;42.144;25.884;2023-05-12T12:44:47;100900.56;;;20.75;38.79
47524;BME280;33253;42.144;25.884;2023-05-12T12:47:14;100905.00;;;20.77;36.18